sensor_id;sensor_type;location;lat;lon;timestamp;pressure;altitude;pressure_sealevel;temperature;humidity
23589;BME280;11972;48.078;11.876;2023-04-21T00:00:49;95014.19;;;6.77;100.00
23589;BME280;11972;48.078;11.876;2023-04-21T00:04:50;95014.44;;;6.59;100.00
23589;BME280;11972;48.078;11.876;2023-04-21T00:08:51;95002.00;;;6.45;100.00
23589;BME280;11972;48.078;11.876;2023-04-21T00:12:51;94996.97;;;6.35;100.00
23589;BME280;11972;48.078;11.876;2023-04-21T00:16:51;94992.88;;;6.33;100.00
23589;BME280;11972;48.078;11.876;2023-04-21T00:20:52;94985.81;;;6.33;100.00
23589;BME280;11972;48.078;11.876;2023-04-21T00:24:52;94986.16;;;6.30;100.00
23589;BME280;11972;48.078;11.876;2023-04-21T00:28:53;94985.00;;;6.25;100.00
23589;BME280;11972;48.078;11.876;2023-04-21T00:32:53;94979.66;;;6.18;100.00
23589;BME280;11972;48.078;11.876;2023-04-21T00:36:53;94978.00;;;6.17;100.00
23589;BME280;11972;48.078;11.876;2023-04-21T00:40:54;94982.28;;;6.18;100.00
23589;BME280;11972;48.078;11.876;2023-04-21T00:44:54;94985.22;;;6.15;100.00
23589;BME280;11972;48.078;11.876;2023-04-21T00:48:56;94989.97;;;6.11;100.00
23589;BME280;11972;48.078;11.876;2023-04-21T00:52:56;94987.34;;;6.11;100.00
23589;BME280;11972;48.078;11.876;2023-04-21T00:56:57;94982.28;;;6.18;100.00
23589;BME280;11972;48.078;11.876;2023-04-21T01:00:57;94976.34;;;6.24;100.00
23589;BME280;11972;48.078;11.876;2023-04-21T01:04:58;94966.72;;;6.08;100.00
23589;BME280;11972;48.078;11.876;2023-04-21T01:08:59;94968.84;;;5.88;100.00
23589;BME280;11972;48.078;11.876;2023-04-21T01:12:59;94966.59;;;5.69;100.00
23589;BME280;11972;48.078;11.876;2023-04-21T01:17:00;94968.41;;;5.68;100.00
23589;BME280;11972;48.078;11.876;2023-04-21T01:21:01;94962.66;;;5.81;100.00
23589;BME280;11972;48.078;11.876;2023-04-21T01:25:01;94963.28;;;5.91;100.00
23589;BME280;11972;48.078;11.876;2023-04-21T01:29:02;94959.69;;;5.92;100.00
23589;BME280;11972;48.078;11.876;2023-04-21T01:33:03;94966.88;;;5.90;100.00
23589;BME280;11972;48.078;11.876;2023-04-21T01:37:07;94972.63;;;5.86;100.00
23589;BME280;11972;48.078;11.876;2023-04-21T01:41:08;94978.69;;;5.78;100.00
23589;BME280;11972;48.078;11.876;2023-04-21T01:45:10;94976.41;;;5.67;100.00
23589;BME280;11972;48.078;11.876;2023-04-21T01:49:10;94984.63;;;5.56;100.00
23589;BME280;11972;48.078;11.876;2023-04-21T01:53:11;94971.53;;;5.47;100.00
23589;BME280;11972;48.078;11.876;2023-04-21T01:57:11;94978.91;;;5.44;100.00
23589;BME280;11972;48.078;11.876;2023-04-21T02:01:11;94982.66;;;5.41;100.00
23589;BME280;11972;48.078;11.876;2023-04-21T02:05:12;94976.41;;;5.34;100.00
23589;BME280;11972;48.078;11.876;2023-04-21T02:09:12;94978.72;;;5.29;100.00
23589;BME280;11972;48.078;11.876;2023-04-21T02:13:12;94966.28;;;5.23;100.00
23589;BME280;11972;48.078;11.876;2023-04-21T02:17:13;94965.63;;;5.21;100.00
23589;BME280;11972;48.078;11.876;2023-04-21T02:21:13;94969.53;;;5.17;100.00
23589;BME280;11972;48.078;11.876;2023-04-21T02:25:14;94965.13;;;5.17;100.00
23589;BME280;11972;48.078;11.876;2023-04-21T02:29:15;94970.22;;;5.19;100.00
23589;BME280;11972;48.078;11.876;2023-04-21T02:33:15;94969.06;;;5.21;100.00
23589;BME280;11972;48.078;11.876;2023-04-21T02:37:16;94959.06;;;5.25;100.00
23589;BME280;11972;48.078;11.876;2023-04-21T02:41:16;94959.75;;;5.27;100.00
23589;BME280;11972;48.078;11.876;2023-04-21T02:45:16;94956.94;;;5.29;100.00
23589;BME280;11972;48.078;11.876;2023-04-21T02:49:17;94956.13;;;5.28;100.00
23589;BME280;11972;48.078;11.876;2023-04-21T02:53:20;94952.53;;;5.29;100.00
23589;BME280;11972;48.078;11.876;2023-04-21T02:57:21;94941.06;;;5.30;100.00
23589;BME280;11972;48.078;11.876;2023-04-21T03:01:21;94951.41;;;5.32;100.00
23589;BME280;11972;48.078;11.876;2023-04-21T03:05:21;94959.41;;;5.30;100.00
23589;BME280;11972;48.078;11.876;2023-04-21T03:09:22;94965.63;;;5.29;100.00
23589;BME280;11972;48.078;11.876;2023-04-21T03:13:22;94971.03;;;5.28;100.00
23589;BME280;11972;48.078;11.876;2023-04-21T03:17:23;94973.47;;;5.29;100.00
23589;BME280;11972;48.078;11.876;2023-04-21T03:21:24;94975.47;;;5.27;100.00
23589;BME280;11972;48.078;11.876;2023-04-21T03:25:24;94973.78;;;5.26;100.00
23589;BME280;11972;48.078;11.876;2023-04-21T03:29:29;94968.91;;;5.23;100.00
23589;BME280;11972;48.078;11.876;2023-04-21T03:33:30;94965.31;;;5.24;100.00
23589;BME280;11972;48.078;11.876;2023-04-21T03:37:30;94959.75;;;5.27;100.00
23589;BME280;11972;48.078;11.876;2023-04-21T03:41:32;94956.28;;;5.27;100.00
23589;BME280;11972;48.078;11.876;2023-04-21T03:45:35;94955.97;;;5.30;100.00
23589;BME280;11972;48.078;11.876;2023-04-21T03:49:35;94954.84;;;5.32;100.00
23589;BME280;11972;48.078;11.876;2023-04-21T03:53:36;94942.72;;;5.39;100.00
23589;BME280;11972;48.078;11.876;2023-04-21T03:57:40;94940.09;;;5.47;100.00
23589;BME280;11972;48.078;11.876;2023-04-21T04:01:41;94947.28;;;5.54;100.00
23589;BME280;11972;48.078;11.876;2023-04-21T04:05:42;94955.97;;;5.54;100.00
23589;BME280;11972;48.078;11.876;2023-04-21T04:09:42;94953.19;;;5.56;100.00
23589;BME280;11972;48.078;11.876;2023-04-21T04:13:43;94959.25;;;5.56;100.00
23589;BME280;11972;48.078;11.876;2023-04-21T04:17:43;94957.25;;;5.58;100.00
23589;BME280;11972;48.078;11.876;2023-04-21T04:21:45;94958.75;;;5.61;100.00
23589;BME280;11972;48.078;11.876;2023-04-21T04:25:45;94949.25;;;5.60;100.00
23589;BME280;11972;48.078;11.876;2023-04-21T04:29:46;94943.34;;;5.58;100.00
23589;BME280;11972;48.078;11.876;2023-04-21T04:33:50;94939.09;;;5.57;100.00
23589;BME280;11972;48.078;11.876;2023-04-21T04:37:50;94945.66;;;5.61;100.00
23589;BME280;11972;48.078;11.876;2023-04-21T04:41:51;94957.44;;;5.65;100.00
23589;BME280;11972;48.078;11.876;2023-04-21T04:45:51;94962.34;;;5.68;100.00
23589;BME280;11972;48.078;11.876;2023-04-21T04:49:52;94959.38;;;5.71;100.00
23589;BME280;11972;48.078;11.876;2023-04-21T04:53:52;94962.50;;;5.75;100.00
23589;BME280;11972;48.078;11.876;2023-04-21T04:57:53;94967.72;;;5.83;100.00
23589;BME280;11972;48.078;11.876;2023-04-21T05:01:53;94963.16;;;5.93;100.00
23589;BME280;11972;48.078;11.876;2023-04-21T05:05:53;94961.97;;;6.04;100.00
23589;BME280;11972;48.078;11.876;2023-04-21T05:09:55;94954.09;;;6.12;100.00
23589;BME280;11972;48.078;11.876;2023-04-21T05:13:55;94963.22;;;6.24;100.00
23589;BME280;11972;48.078;11.876;2023-04-21T05:17:56;94970.41;;;6.38;100.00
23589;BME280;11972;48.078;11.876;2023-04-21T05:21:59;94973.25;;;6.60;100.00
23589;BME280;11972;48.078;11.876;2023-04-21T05:26:02;94976.06;;;6.89;100.00
23589;BME280;11972;48.078;11.876;2023-04-21T05:30:03;94974.84;;;7.23;100.00
23589;BME280;11972;48.078;11.876;2023-04-21T05:34:03;94970.19;;;7.56;100.00
23589;BME280;11972;48.078;11.876;2023-04-21T05:38:04;94973.72;;;7.86;100.00
23589;BME280;11972;48.078;11.876;2023-04-21T05:42:05;94972.28;;;8.13;100.00
23589;BME280;11972;48.078;11.876;2023-04-21T05:46:08;94958.59;;;8.33;100.00
23589;BME280;11972;48.078;11.876;2023-04-21T05:50:09;94962.97;;;8.40;100.00
23589;BME280;11972;48.078;11.876;2023-04-21T05:54:09;94975.31;;;8.55;100.00
23589;BME280;11972;48.078;11.876;2023-04-21T05:58:10;94973.38;;;8.63;100.00
23589;BME280;11972;48.078;11.876;2023-04-21T06:02:11;94979.47;;;8.64;100.00
23589;BME280;11972;48.078;11.876;2023-04-21T06:06:11;94965.31;;;8.65;100.00
23589;BME280;11972;48.078;11.876;2023-04-21T06:10:13;94963.75;;;8.70;100.00
23589;BME280;11972;48.078;11.876;2023-04-21T06:14:13;94960.81;;;8.80;100.00
23589;BME280;11972;48.078;11.876;2023-04-21T06:18:13;94957.84;;;8.83;100.00
23589;BME280;11972;48.078;11.876;2023-04-21T06:22:15;94960.66;;;8.82;100.00
23589;BME280;11972;48.078;11.876;2023-04-21T06:26:16;94967.09;;;8.79;100.00
23589;BME280;11972;48.078;11.876;2023-04-21T06:30:16;94960.06;;;8.65;100.00
23589;BME280;11972;48.078;11.876;2023-04-21T06:34:16;94952.25;;;8.57;100.00
23589;BME280;11972;48.078;11.876;2023-04-21T06:38:17;94946.00;;;8.58;100.00
23589;BME280;11972;48.078;11.876;2023-04-21T06:42:17;94942.25;;;8.67;100.00
23589;BME280;11972;48.078;11.876;2023-04-21T06:46:18;94939.03;;;8.86;100.00
23589;BME280;11972;48.078;11.876;2023-04-21T06:50:18;94941.25;;;9.04;100.00
23589;BME280;11972;48.078;11.876;2023-04-21T06:54:18;94953.94;;;9.15;100.00
23589;BME280;11972;48.078;11.876;2023-04-21T06:58:19;94951.75;;;9.19;100.00
23589;BME280;11972;48.078;11.876;2023-04-21T07:02:19;94950.00;;;9.48;100.00
23589;BME280;11972;48.078;11.876;2023-04-21T07:06:19;94936.41;;;9.72;100.00
23589;BME280;11972;48.078;11.876;2023-04-21T07:10:20;94940.91;;;9.78;100.00
23589;BME280;11972;48.078;11.876;2023-04-21T07:14:20;94938.34;;;9.91;100.00
23589;BME280;11972;48.078;11.876;2023-04-21T07:18:21;94936.22;;;10.02;100.00
23589;BME280;11972;48.078;11.876;2023-04-21T07:22:21;94936.81;;;10.25;100.00
23589;BME280;11972;48.078;11.876;2023-04-21T07:26:22;94936.53;;;10.55;100.00
23589;BME280;11972;48.078;11.876;2023-04-21T07:30:22;94935.47;;;10.90;100.00
23589;BME280;11972;48.078;11.876;2023-04-21T07:34:23;94929.47;;;11.30;100.00
23589;BME280;11972;48.078;11.876;2023-04-21T07:38:23;94930.53;;;11.68;100.00
23589;BME280;11972;48.078;11.876;2023-04-21T07:42:24;94928.69;;;11.82;100.00
23589;BME280;11972;48.078;11.876;2023-04-21T07:46:25;94933.19;;;11.88;100.00
23589;BME280;11972;48.078;11.876;2023-04-21T07:50:29;94931.16;;;11.90;100.00
23589;BME280;11972;48.078;11.876;2023-04-21T07:54:29;94928.31;;;11.85;100.00
23589;BME280;11972;48.078;11.876;2023-04-21T07:58:30;94940.91;;;11.97;100.00
23589;BME280;11972;48.078;11.876;2023-04-21T08:02:30;94944.16;;;12.12;100.00
23589;BME280;11972;48.078;11.876;2023-04-21T08:06:30;94943.78;;;12.02;100.00
23589;BME280;11972;48.078;11.876;2023-04-21T08:10:32;94948.03;;;11.96;100.00
23589;BME280;11972;48.078;11.876;2023-04-21T08:14:33;94945.31;;;12.42;100.00
23589;BME280;11972;48.078;11.876;2023-04-21T08:18:33;94942.41;;;12.71;100.00
23589;BME280;11972;48.078;11.876;2023-04-21T08:22:33;94948.25;;;12.93;100.00
23589;BME280;11972;48.078;11.876;2023-04-21T08:26:35;94940.53;;;13.29;100.00
23589;BME280;11972;48.078;11.876;2023-04-21T08:30:36;94936.94;;;13.49;100.00
23589;BME280;11972;48.078;11.876;2023-04-21T08:34:36;94935.34;;;13.73;100.00
23589;BME280;11972;48.078;11.876;2023-04-21T08:38:37;94936.69;;;13.57;100.00
23589;BME280;11972;48.078;11.876;2023-04-21T08:42:37;94930.72;;;13.86;100.00
23589;BME280;11972;48.078;11.876;2023-04-21T08:46:38;94928.41;;;14.22;100.00
23589;BME280;11972;48.078;11.876;2023-04-21T08:50:41;94922.13;;;14.34;100.00
23589;BME280;11972;48.078;11.876;2023-04-21T08:54:43;94924.59;;;14.36;100.00
23589;BME280;11972;48.078;11.876;2023-04-21T08:58:43;94929.94;;;14.54;100.00
23589;BME280;11972;48.078;11.876;2023-04-21T09:02:57;94936.38;;;14.65;100.00
23589;BME280;11972;48.078;11.876;2023-04-21T09:06:58;94939.03;;;14.65;100.00
23589;BME280;11972;48.078;11.876;2023-04-21T09:10:59;94925.69;;;14.47;100.00
23589;BME280;11972;48.078;11.876;2023-04-21T09:15:04;94934.28;;;14.49;100.00
23589;BME280;11972;48.078;11.876;2023-04-21T09:19:13;94929.97;;;14.29;100.00
23589;BME280;11972;48.078;11.876;2023-04-21T09:23:14;94930.53;;;14.13;100.00
23589;BME280;11972;48.078;11.876;2023-04-21T09:27:15;94931.38;;;14.07;100.00
23589;BME280;11972;48.078;11.876;2023-04-21T09:31:25;94927.88;;;14.13;100.00
23589;BME280;11972;48.078;11.876;2023-04-21T09:35:28;94925.50;;;14.23;100.00
23589;BME280;11972;48.078;11.876;2023-04-21T09:39:29;94920.81;;;14.44;100.00
23589;BME280;11972;48.078;11.876;2023-04-21T09:43:30;94918.34;;;14.49;100.00
23589;BME280;11972;48.078;11.876;2023-04-21T09:47:32;94926.19;;;14.62;100.00
23589;BME280;11972;48.078;11.876;2023-04-21T09:51:35;94917.47;;;14.73;100.00
23589;BME280;11972;48.078;11.876;2023-04-21T09:55:35;94915.25;;;14.70;100.00
23589;BME280;11972;48.078;11.876;2023-04-21T09:59:36;94913.13;;;15.09;100.00
23589;BME280;11972;48.078;11.876;2023-04-21T10:03:38;94910.44;;;15.27;100.00
23589;BME280;11972;48.078;11.876;2023-04-21T10:07:39;94911.81;;;15.30;100.00
23589;BME280;11972;48.078;11.876;2023-04-21T10:11:40;94904.09;;;15.40;100.00
23589;BME280;11972;48.078;11.876;2023-04-21T10:15:41;94905.44;;;15.61;100.00
23589;BME280;11972;48.078;11.876;2023-04-21T10:19:52;94906.00;;;16.05;100.00
23589;BME280;11972;48.078;11.876;2023-04-21T10:23:53;94911.38;;;16.57;100.00
23589;BME280;11972;48.078;11.876;2023-04-21T10:27:53;94903.13;;;16.94;100.00
23589;BME280;11972;48.078;11.876;2023-04-21T10:31:54;94897.28;;;17.08;100.00
23589;BME280;11972;48.078;11.876;2023-04-21T10:45:15;94896.41;;;17.20;100.00
23589;BME280;11972;48.078;11.876;2023-04-21T10:53:16;94885.00;;;17.53;100.00
23589;BME280;11972;48.078;11.876;2023-04-21T10:57:18;94889.69;;;17.63;100.00
23589;BME280;11972;48.078;11.876;2023-04-21T11:01:19;94880.81;;;17.57;100.00
23589;BME280;11972;48.078;11.876;2023-04-21T11:05:19;94885.09;;;17.58;100.00
23589;BME280;11972;48.078;11.876;2023-04-21T11:09:25;94882.25;;;17.65;100.00
23589;BME280;11972;48.078;11.876;2023-04-21T11:13:26;94891.28;;;16.90;100.00
23589;BME280;11972;48.078;11.876;2023-04-21T11:17:33;94883.47;;;16.48;100.00
23589;BME280;11972;48.078;11.876;2023-04-21T11:21:34;94888.34;;;17.03;100.00
23589;BME280;11972;48.078;11.876;2023-04-21T11:25:34;94883.94;;;17.54;100.00
23589;BME280;11972;48.078;11.876;2023-04-21T11:29:35;94871.53;;;17.76;100.00
23589;BME280;11972;48.078;11.876;2023-04-21T11:33:37;94879.88;;;17.80;100.00
23589;BME280;11972;48.078;11.876;2023-04-21T11:37:37;94871.31;;;17.78;100.00
23589;BME280;11972;48.078;11.876;2023-04-21T11:41:40;94866.44;;;17.75;100.00
23589;BME280;11972;48.078;11.876;2023-04-21T11:45:41;94875.16;;;17.70;100.00
23589;BME280;11972;48.078;11.876;2023-04-21T11:49:46;94873.59;;;16.83;100.00
23589;BME280;11972;48.078;11.876;2023-04-21T11:53:47;94871.19;;;17.27;100.00
23589;BME280;11972;48.078;11.876;2023-04-21T11:57:49;94864.16;;;17.83;100.00
23589;BME280;11972;48.078;11.876;2023-04-21T12:01:52;94861.00;;;17.70;100.00
23589;BME280;11972;48.078;11.876;2023-04-21T12:05:55;94855.72;;;17.58;100.00
23589;BME280;11972;48.078;11.876;2023-04-21T12:09:57;94853.84;;;17.42;100.00
23589;BME280;11972;48.078;11.876;2023-04-21T12:13:58;94846.31;;;17.39;100.00
23589;BME280;11972;48.078;11.876;2023-04-21T12:17:59;94844.38;;;17.51;100.00
23589;BME280;11972;48.078;11.876;2023-04-21T12:21:59;94853.13;;;17.63;100.00
23589;BME280;11972;48.078;11.876;2023-04-21T12:26:00;94846.50;;;17.49;100.00
23589;BME280;11972;48.078;11.876;2023-04-21T12:30:00;94852.94;;;17.36;100.00
23589;BME280;11972;48.078;11.876;2023-04-21T12:34:01;94841.44;;;17.35;100.00
23589;BME280;11972;48.078;11.876;2023-04-21T12:38:01;94841.44;;;17.35;100.00
23589;BME280;11972;48.078;11.876;2023-04-21T12:42:01;94846.97;;;17.46;100.00
23589;BME280;11972;48.078;11.876;2023-04-21T12:46:02;94837.75;;;17.53;100.00
23589;BME280;11972;48.078;11.876;2023-04-21T12:50:02;94839.38;;;17.54;100.00
23589;BME280;11972;48.078;11.876;2023-04-21T12:54:03;94828.69;;;17.71;100.00
23589;BME280;11972;48.078;11.876;2023-04-21T12:58:03;94836.63;;;17.66;100.00
23589;BME280;11972;48.078;11.876;2023-04-21T13:02:04;94837.19;;;17.51;100.00
23589;BME280;11972;48.078;11.876;2023-04-21T13:06:04;94838.91;;;17.57;100.00
23589;BME280;11972;48.078;11.876;2023-04-21T13:10:05;94818.88;;;17.60;100.00
23589;BME280;11972;48.078;11.876;2023-04-21T13:14:06;94815.09;;;17.56;100.00
23589;BME280;11972;48.078;11.876;2023-04-21T13:18:06;94810.28;;;18.08;100.00
23589;BME280;11972;48.078;11.876;2023-04-21T13:22:07;94806.00;;;18.68;100.00
23589;BME280;11972;48.078;11.876;2023-04-21T13:26:07;94805.47;;;19.20;100.00
23589;BME280;11972;48.078;11.876;2023-04-21T13:30:09;94799.13;;;19.58;100.00
23589;BME280;11972;48.078;11.876;2023-04-21T13:34:10;94795.81;;;19.46;100.00
23589;BME280;11972;48.078;11.876;2023-04-21T13:38:11;94800.16;;;19.85;100.00
23589;BME280;11972;48.078;11.876;2023-04-21T13:42:11;94795.03;;;20.20;100.00
23589;BME280;11972;48.078;11.876;2023-04-21T13:46:11;94794.97;;;20.58;100.00
23589;BME280;11972;48.078;11.876;2023-04-21T13:50:13;94792.66;;;20.87;100.00
23589;BME280;11972;48.078;11.876;2023-04-21T13:54:13;94782.25;;;20.43;100.00
23589;BME280;11972;48.078;11.876;2023-04-21T13:58:14;94772.19;;;20.70;100.00
23589;BME280;11972;48.078;11.876;2023-04-21T14:02:15;94772.50;;;20.79;100.00
23589;BME280;11972;48.078;11.876;2023-04-21T14:06:16;94770.16;;;21.23;100.00
23589;BME280;11972;48.078;11.876;2023-04-21T14:10:16;94767.78;;;21.32;100.00
23589;BME280;11972;48.078;11.876;2023-04-21T14:14:16;94767.97;;;20.95;100.00
23589;BME280;11972;48.078;11.876;2023-04-21T14:18:17;94757.00;;;21.22;100.00
23589;BME280;11972;48.078;11.876;2023-04-21T14:22:17;94753.53;;;21.67;100.00
23589;BME280;11972;48.078;11.876;2023-04-21T14:26:19;94739.75;;;22.20;100.00
23589;BME280;11972;48.078;11.876;2023-04-21T14:30:20;94736.16;;;22.45;100.00
23589;BME280;11972;48.078;11.876;2023-04-21T14:34:20;94735.03;;;22.56;100.00
23589;BME280;11972;48.078;11.876;2023-04-21T14:38:20;94726.47;;;22.49;100.00
23589;BME280;11972;48.078;11.876;2023-04-21T14:42:20;94718.13;;;22.45;100.00
23589;BME280;11972;48.078;11.876;2023-04-21T14:46:21;94710.44;;;22.08;98.15
23589;BME280;11972;48.078;11.876;2023-04-21T14:50:21;94717.38;;;22.29;100.00
23589;BME280;11972;48.078;11.876;2023-04-21T14:54:22;94719.56;;;22.17;95.95
23589;BME280;11972;48.078;11.876;2023-04-21T14:58:22;94714.31;;;21.66;96.75
23589;BME280;11972;48.078;11.876;2023-04-21T15:02:22;94714.19;;;22.17;100.00
23589;BME280;11972;48.078;11.876;2023-04-21T15:06:23;94727.38;;;22.84;100.00
23589;BME280;11972;48.078;11.876;2023-04-21T15:10:23;94719.41;;;23.13;93.26
23589;BME280;11972;48.078;11.876;2023-04-21T15:14:23;94723.44;;;23.44;90.32
23589;BME280;11972;48.078;11.876;2023-04-21T15:18:24;94712.28;;;23.90;89.79
23589;BME280;11972;48.078;11.876;2023-04-21T15:22:24;94713.50;;;24.03;88.59
23589;BME280;11972;48.078;11.876;2023-04-21T15:26:25;94722.50;;;24.65;86.30
23589;BME280;11972;48.078;11.876;2023-04-21T15:30:25;94734.22;;;25.17;81.77
23589;BME280;11972;48.078;11.876;2023-04-21T15:34:26;94722.09;;;24.96;78.82
23589;BME280;11972;48.078;11.876;2023-04-21T15:38:26;94726.59;;;23.86;78.69
23589;BME280;11972;48.078;11.876;2023-04-21T15:42:26;94729.63;;;23.50;82.50
23589;BME280;11972;48.078;11.876;2023-04-21T15:46:27;94715.72;;;23.96;84.70
23589;BME280;11972;48.078;11.876;2023-04-21T15:50:28;94722.03;;;24.10;81.93
23589;BME280;11972;48.078;11.876;2023-04-21T15:54:30;94715.09;;;23.46;82.31
23589;BME280;11972;48.078;11.876;2023-04-21T15:58:33;94709.56;;;22.93;84.42
23589;BME280;11972;48.078;11.876;2023-04-21T16:02:33;94707.75;;;22.23;85.16
23589;BME280;11972;48.078;11.876;2023-04-21T16:06:33;94703.59;;;21.36;87.23
23589;BME280;11972;48.078;11.876;2023-04-21T16:10:34;94712.19;;;21.53;88.19
23589;BME280;11972;48.078;11.876;2023-04-21T16:14:35;94704.28;;;22.18;90.20
23589;BME280;11972;48.078;11.876;2023-04-21T16:18:37;94692.13;;;23.19;87.58
23589;BME280;11972;48.078;11.876;2023-04-21T16:22:37;94697.03;;;23.12;82.09
23589;BME280;11972;48.078;11.876;2023-04-21T16:26:38;94689.78;;;23.76;83.48
23589;BME280;11972;48.078;11.876;2023-04-21T16:30:38;94683.00;;;24.26;77.01
23589;BME280;11972;48.078;11.876;2023-04-21T16:34:42;94679.81;;;24.48;76.80
23589;BME280;11972;48.078;11.876;2023-04-21T16:38:42;94669.94;;;23.91;74.74
23589;BME280;11972;48.078;11.876;2023-04-21T16:42:42;94668.91;;;23.87;74.21
23589;BME280;11972;48.078;11.876;2023-04-21T16:46:43;94672.13;;;23.89;78.42
23589;BME280;11972;48.078;11.876;2023-04-21T16:50:44;94682.28;;;24.45;75.02
23589;BME280;11972;48.078;11.876;2023-04-21T16:54:44;94688.66;;;24.92;73.71
23589;BME280;11972;48.078;11.876;2023-04-21T16:58:44;94684.22;;;25.20;70.99
23589;BME280;11972;48.078;11.876;2023-04-21T17:02:45;94679.94;;;25.33;65.75
23589;BME280;11972;48.078;11.876;2023-04-21T17:06:45;94684.44;;;25.23;62.49
23589;BME280;11972;48.078;11.876;2023-04-21T17:10:47;94688.72;;;24.87;62.74
23589;BME280;11972;48.078;11.876;2023-04-21T17:14:47;94685.75;;;24.69;65.64
23589;BME280;11972;48.078;11.876;2023-04-21T17:18:48;94680.25;;;24.32;67.09
23589;BME280;11972;48.078;11.876;2023-04-21T17:22:48;94684.00;;;23.88;73.23
23589;BME280;11972;48.078;11.876;2023-04-21T17:26:49;94677.72;;;23.68;77.09
23589;BME280;11972;48.078;11.876;2023-04-21T17:30:49;94685.53;;;23.36;79.76
23589;BME280;11972;48.078;11.876;2023-04-21T17:34:49;94686.41;;;22.92;81.99
23589;BME280;11972;48.078;11.876;2023-04-21T17:38:50;94689.03;;;21.67;86.54
23589;BME280;11972;48.078;11.876;2023-04-21T17:42:50;94699.25;;;20.89;93.28
23589;BME280;11972;48.078;11.876;2023-04-21T17:46:50;94701.81;;;20.48;98.36
23589;BME280;11972;48.078;11.876;2023-04-21T17:50:51;94702.22;;;20.09;100.00
23589;BME280;11972;48.078;11.876;2023-04-21T17:54:51;94697.44;;;19.31;100.00
23589;BME280;11972;48.078;11.876;2023-04-21T17:58:52;94703.03;;;18.44;100.00
23589;BME280;11972;48.078;11.876;2023-04-21T18:02:53;94706.75;;;17.60;100.00
23589;BME280;11972;48.078;11.876;2023-04-21T18:06:53;94708.47;;;16.82;100.00
23589;BME280;11972;48.078;11.876;2023-04-21T18:10:53;94719.00;;;16.20;100.00
23589;BME280;11972;48.078;11.876;2023-04-21T18:14:54;94717.00;;;15.63;100.00
23589;BME280;11972;48.078;11.876;2023-04-21T18:18:54;94719.56;;;15.11;100.00
23589;BME280;11972;48.078;11.876;2023-04-21T18:22:55;94717.84;;;14.63;100.00
23589;BME280;11972;48.078;11.876;2023-04-21T18:26:55;94720.66;;;14.20;100.00
23589;BME280;11972;48.078;11.876;2023-04-21T18:30:56;94727.25;;;13.80;100.00
23589;BME280;11972;48.078;11.876;2023-04-21T18:34:56;94736.78;;;13.45;100.00
23589;BME280;11972;48.078;11.876;2023-04-21T18:38:57;94743.16;;;13.12;100.00
23589;BME280;11972;48.078;11.876;2023-04-21T18:42:57;94748.53;;;12.80;100.00
23589;BME280;11972;48.078;11.876;2023-04-21T18:46:57;94753.38;;;12.52;100.00
23589;BME280;11972;48.078;11.876;2023-04-21T18:50:58;94764.09;;;12.25;100.00
23589;BME280;11972;48.078;11.876;2023-04-21T18:54:59;94761.34;;;12.00;100.00
23589;BME280;11972;48.078;11.876;2023-04-21T18:58:59;94767.94;;;11.78;100.00
23589;BME280;11972;48.078;11.876;2023-04-21T19:03:00;94772.44;;;11.57;100.00
23589;BME280;11972;48.078;11.876;2023-04-21T19:07:00;94770.84;;;11.36;100.00
23589;BME280;11972;48.078;11.876;2023-04-21T19:11:01;94776.75;;;11.18;100.00
23589;BME280;11972;48.078;11.876;2023-04-21T19:15:02;94775.94;;;11.05;100.00
23589;BME280;11972;48.078;11.876;2023-04-21T19:19:03;94785.69;;;10.91;100.00
23589;BME280;11972;48.078;11.876;2023-04-21T19:23:04;94781.22;;;10.78;100.00
23589;BME280;11972;48.078;11.876;2023-04-21T19:27:04;94784.03;;;10.70;100.00
23589;BME280;11972;48.078;11.876;2023-04-21T19:31:05;94782.59;;;10.61;100.00
23589;BME280;11972;48.078;11.876;2023-04-21T19:35:06;94789.88;;;10.46;100.00
23589;BME280;11972;48.078;11.876;2023-04-21T19:39:07;94796.34;;;10.36;100.00
23589;BME280;11972;48.078;11.876;2023-04-21T19:43:08;94794.72;;;10.29;100.00
23589;BME280;11972;48.078;11.876;2023-04-21T19:47:08;94792.16;;;10.14;100.00
23589;BME280;11972;48.078;11.876;2023-04-21T19:51:09;94792.56;;;10.04;100.00
23589;BME280;11972;48.078;11.876;2023-04-21T19:55:09;94799.78;;;9.95;100.00
23589;BME280;11972;48.078;11.876;2023-04-21T19:59:09;94792.47;;;9.91;100.00
23589;BME280;11972;48.078;11.876;2023-04-21T20:03:10;94800.81;;;9.94;100.00
23589;BME280;11972;48.078;11.876;2023-04-21T20:07:11;94798.22;;;10.08;100.00
23589;BME280;11972;48.078;11.876;2023-04-21T20:11:11;94805.19;;;10.22;100.00
23589;BME280;11972;48.078;11.876;2023-04-21T20:15:12;94818.06;;;10.38;100.00
23589;BME280;11972;48.078;11.876;2023-04-21T20:19:12;94850.44;;;10.60;100.00
23589;BME280;11972;48.078;11.876;2023-04-21T20:23:14;94836.88;;;10.70;100.00
23589;BME280;11972;48.078;11.876;2023-04-21T20:27:14;94840.59;;;11.22;100.00
23589;BME280;11972;48.078;11.876;2023-04-21T20:31:14;94840.19;;;11.38;100.00
23589;BME280;11972;48.078;11.876;2023-04-21T20:35:18;94845.09;;;11.28;100.00
23589;BME280;11972;48.078;11.876;2023-04-21T20:39:18;94844.84;;;11.03;100.00
23589;BME280;11972;48.078;11.876;2023-04-21T20:43:19;94855.78;;;10.80;100.00
23589;BME280;11972;48.078;11.876;2023-04-21T20:47:19;94861.88;;;10.74;100.00
23589;BME280;11972;48.078;11.876;2023-04-21T20:51:21;94862.25;;;10.78;100.00
23589;BME280;11972;48.078;11.876;2023-04-21T20:55:21;94853.31;;;10.72;100.00
23589;BME280;11972;48.078;11.876;2023-04-21T20:59:21;94855.09;;;10.52;100.00
23589;BME280;11972;48.078;11.876;2023-04-21T21:03:22;94855.81;;;10.26;100.00